Time;durP1;ratioP1;P1;durP2;ratioP2;P2;SDS_P1;SDS_P2;PMS_P1;PMS_P2;Temp;Humidity;BMP_temperature;BMP_pressure;BME280_temperature;BME280_humidity;BME280_pressure;Samples;Min_cycle;Max_cycle;Signal;HPM_P1;HPM_P2
2023/09/15 00:00:20;;;;;;;3.75;3.03;;;;;;;;;;5043898;28;20056;-69
2023/09/15 00:02:48;;;;;;;3.90;2.72;;;;;;;;;;5052308;28;20087;-69
2023/09/15 00:05:14;;;;;;;6.07;3.38;;;;;;;;;;5051728;28;20136;-70
2023/09/15 00:07:41;;;;;;;4.32;3.10;;;;;;;;;;5047406;28;20412;-68
2023/09/15 00:10:11;;;;;;;4.45;2.72;;;;;;;;;;5049613;28;20580;-68
2023/09/15 00:12:38;;;;;;;3.28;2.78;;;;;;;;;;5048357;28;20492;-68
2023/09/15 00:15:07;;;;;;;4.32;2.90;;;;;;;;;;5051625;28;20489;-69
2023/09/15 00:17:36;;;;;;;5.78;2.95;;;;;;;;;;5049333;28;20084;-68
2023/09/15 00:20:08;;;;;;;4.22;3.08;;;;;;;;;;5048119;28;20116;-68
2023/09/15 00:22:35;;;;;;;7.60;3.40;;;;;;;;;;5048625;28;20041;-68
2023/09/15 00:25:03;;;;;;;8.65;3.13;;;;;;;;;;5043239;28;20041;-68
2023/09/15 00:27:30;;;;;;;5.70;2.78;;;;;;;;;;5050974;28;20497;-68
2023/09/15 00:29:56;;;;;;;3.58;2.83;;;;;;;;;;5046770;28;20398;-69
2023/09/15 00:32:23;;;;;;;4.80;2.70;;;;;;;;;;5049641;28;20131;-69
2023/09/15 00:34:51;;;;;;;3.72;2.95;;;;;;;;;;5049638;28;20453;-68
2023/09/15 00:37:18;;;;;;;4.93;2.83;;;;;;;;;;5049498;28;20089;-68
2023/09/15 00:39:44;;;;;;;6.13;3.20;;;;;;;;;;5050081;28;20045;-69
2023/09/15 00:42:12;;;;;;;4.45;2.88;;;;;;;;;;5048207;28;20083;-68
2023/09/15 00:44:38;;;;;;;4.18;2.60;;;;;;;;;;5050809;28;20154;-68
2023/09/15 00:47:05;;;;;;;5.78;2.92;;;;;;;;;;5048701;28;20226;-68
2023/09/15 00:49:32;;;;;;;5.97;2.72;;;;;;;;;;5054159;28;20150;-68
2023/09/15 00:52:00;;;;;;;4.43;2.80;;;;;;;;;;5043128;28;20124;-68
2023/09/15 00:54:28;;;;;;;3.67;2.90;;;;;;;;;;5049715;28;20521;-69
2023/09/15 00:56:56;;;;;;;3.75;2.67;;;;;;;;;;5046012;28;20053;-69
2023/09/15 00:59:22;;;;;;;4.15;2.70;;;;;;;;;;5044203;28;20053;-68
2023/09/15 01:01:49;;;;;;;4.10;3.03;;;;;;;;;;5048466;28;20517;-68
2023/09/15 01:04:17;;;;;;;3.20;2.75;;;;;;;;;;5043083;28;20053;-69
2023/09/15 01:06:47;;;;;;;4.45;2.88;;;;;;;;;;5047351;28;20102;-68
2023/09/15 01:09:15;;;;;;;4.25;3.20;;;;;;;;;;5047805;28;20055;-68
2023/09/15 01:11:42;;;;;;;4.43;3.28;;;;;;;;;;5047400;28;20543;-68
2023/09/15 01:14:09;;;;;;;5.63;2.85;;;;;;;;;;5047158;28;20044;-68
2023/09/15 01:16:40;;;;;;;5.43;2.83;;;;;;;;;;5050299;28;20083;-68
2023/09/15 01:19:22;;;;;;;4.07;3.00;;;;;;;;;;5053635;28;20412;-68
2023/09/15 01:22:19;;;;;;;5.50;3.20;;;;;;;;;;5044561;28;20492;-68
2023/09/15 01:25:16;;;;;;;4.60;2.90;;;;;;;;;;5047688;28;20072;-68
2023/09/15 01:28:35;;;;;;;4.65;3.10;;;;;;;;;;5044892;28;20493;-70
2023/09/15 01:31:04;;;;;;;4.18;2.95;;;;;;;;;;5050309;28;20060;-68
2023/09/15 01:33:31;;;;;;;4.55;3.65;;;;;;;;;;5047652;28;20488;-68
2023/09/15 01:35:59;;;;;;;3.95;3.28;;;;;;;;;;5047861;28;20317;-70
2023/09/15 01:38:26;;;;;;;4.38;3.40;;;;;;;;;;5045781;28;20041;-68
2023/09/15 01:40:52;;;;;;;4.95;3.60;;;;;;;;;;5048195;28;20451;-70
2023/09/15 01:43:19;;;;;;;4.55;3.15;;;;;;;;;;5045244;28;20124;-70
2023/09/15 01:45:46;;;;;;;5.30;2.95;;;;;;;;;;5044854;28;20048;-70
2023/09/15 01:48:15;;;;;;;3.60;2.92;;;;;;;;;;5043221;28;20413;-70
2023/09/15 01:50:43;;;;;;;5.18;3.05;;;;;;;;;;5045203;28;20069;-70
2023/09/15 01:53:09;;;;;;;4.70;3.28;;;;;;;;;;5049030;28;20045;-71
2023/09/15 01:55:37;;;;;;;4.63;3.20;;;;;;;;;;5044558;28;20556;-71
2023/09/15 01:58:04;;;;;;;5.30;3.47;;;;;;;;;;5047495;28;20531;-70
2023/09/15 02:00:35;;;;;;;5.32;3.45;;;;;;;;;;5050349;28;20081;-70
2023/09/15 02:03:01;;;;;;;5.95;3.03;;;;;;;;;;5046763;28;20052;-70
2023/09/15 02:05:30;;;;;;;3.38;3.00;;;;;;;;;;5047224;28;20080;-70
2023/09/15 02:07:56;;;;;;;7.35;3.22;;;;;;;;;;5042155;28;20412;-71
2023/09/15 02:10:23;;;;;;;4.68;3.20;;;;;;;;;;5047315;28;20047;-70
2023/09/15 02:12:50;;;;;;;4.18;2.92;;;;;;;;;;5039619;28;20051;-70
2023/09/15 02:15:17;;;;;;;4.85;2.92;;;;;;;;;;5051266;28;20436;-70
2023/09/15 02:17:43;;;;;;;4.40;3.20;;;;;;;;;;5051063;28;20048;-70
2023/09/15 02:20:12;;;;;;;5.10;3.08;;;;;;;;;;5046243;28;20047;-70
2023/09/15 02:22:41;;;;;;;7.00;3.15;;;;;;;;;;5040304;28;20049;-70
2023/09/15 02:25:09;;;;;;;3.85;3.05;;;;;;;;;;5047025;28;20052;-70
2023/09/15 02:27:35;;;;;;;4.28;2.95;;;;;;;;;;5044320;28;20077;-70
2023/09/15 02:30:02;;;;;;;6.32;3.47;;;;;;;;;;5048659;28;20084;-70
2023/09/15 02:32:29;;;;;;;4.47;3.30;;;;;;;;;;5042242;28;20041;-70
2023/09/15 02:34:55;;;;;;;5.95;3.17;;;;;;;;;;5046498;28;20045;-70
2023/09/15 02:37:22;;;;;;;5.30;2.67;;;;;;;;;;5052211;28;20087;-70
2023/09/15 02:39:50;;;;;;;4.85;3.10;;;;;;;;;;5046448;28;20541;-70
2023/09/15 02:42:16;;;;;;;4.25;3.00;;;;;;;;;;5046903;28;20059;-70
2023/09/15 02:44:44;;;;;;;7.60;3.10;;;;;;;;;;5045770;28;20047;-70
2023/09/15 02:47:10;;;;;;;6.68;3.40;;;;;;;;;;5047937;28;20128;-70
2023/09/15 02:49:37;;;;;;;5.65;3.00;;;;;;;;;;5046573;28;20049;-70
2023/09/15 02:52:05;;;;;;;4.05;2.78;;;;;;;;;;5046403;28;20497;-70
2023/09/15 02:54:31;;;;;;;6.93;2.85;;;;;;;;;;5043803;28;20107;-70
2023/09/15 02:56:59;;;;;;;4.32;2.55;;;;;;;;;;5043572;28;20107;-71
2023/09/15 02:59:27;;;;;;;6.63;3.50;;;;;;;;;;5046376;28;20123;-70
2023/09/15 03:01:53;;;;;;;5.35;3.30;;;;;;;;;;5043692;28;20079;-70
2023/09/15 03:04:20;;;;;;;8.32;3.17;;;;;;;;;;5045744;28;20124;-70
2023/09/15 03:06:48;;;;;;;5.18;3.22;;;;;;;;;;5046003;28;20060;-69
2023/09/15 03:09:15;;;;;;;6.82;3.70;;;;;;;;;;5048782;28;20136;-70
2023/09/15 03:11:41;;;;;;;5.22;3.20;;;;;;;;;;5047534;28;20075;-69
2023/09/15 03:14:11;;;;;;;4.82;2.92;;;;;;;;;;5038883;28;20041;-70
2023/09/15 03:16:41;;;;;;;4.75;3.03;;;;;;;;;;5048407;28;20041;-71
2023/09/15 03:19:07;;;;;;;4.50;3.20;;;;;;;;;;5044012;28;20051;-70
2023/09/15 03:21:34;;;;;;;4.80;3.42;;;;;;;;;;5047844;28;20075;-70
2023/09/15 03:24:01;;;;;;;6.25;2.95;;;;;;;;;;5043143;28;20049;-70
2023/09/15 03:26:28;;;;;;;4.15;2.75;;;;;;;;;;5047713;28;20135;-70
2023/09/15 03:28:54;;;;;;;3.97;3.15;;;;;;;;;;5046186;28;20483;-71
2023/09/15 03:31:22;;;;;;;6.97;3.17;;;;;;;;;;5045650;28;20045;-70
2023/09/15 03:33:49;;;;;;;6.53;2.97;;;;;;;;;;5042733;28;20500;-70
2023/09/15 03:36:16;;;;;;;7.47;3.30;;;;;;;;;;5048074;28;20132;-70
2023/09/15 03:38:43;;;;;;;8.15;3.47;;;;;;;;;;5047314;28;20045;-70
2023/09/15 03:41:09;;;;;;;4.55;3.45;;;;;;;;;;5040155;28;20132;-70
2023/09/15 03:43:36;;;;;;;6.10;3.17;;;;;;;;;;5048147;28;20049;-71
2023/09/15 03:46:03;;;;;;;4.82;3.22;;;;;;;;;;5045144;28;20398;-70
2023/09/15 03:48:31;;;;;;;4.72;3.30;;;;;;;;;;5049454;28;20131;-70
2023/09/15 03:50:58;;;;;;;5.43;3.35;;;;;;;;;;5042545;28;20416;-70
2023/09/15 03:53:25;;;;;;;6.07;3.60;;;;;;;;;;5047653;28;20049;-70
2023/09/15 03:55:52;;;;;;;6.22;3.60;;;;;;;;;;5045681;28;20484;-70
2023/09/15 03:58:18;;;;;;;7.63;3.47;;;;;;;;;;5050450;28;20052;-69
2023/09/15 04:00:45;;;;;;;6.60;3.80;;;;;;;;;;5048230;28;20107;-70
2023/09/15 04:03:12;;;;;;;5.57;3.58;;;;;;;;;;5042285;28;20125;-70
2023/09/15 04:05:40;;;;;;;4.90;3.83;;;;;;;;;;5039604;28;20056;-70
2023/09/15 04:08:06;;;;;;;6.85;4.40;;;;;;;;;;5043222;28;20052;-69
2023/09/15 04:10:33;;;;;;;7.63;3.70;;;;;;;;;;5045608;28;20144;-70
2023/09/15 04:13:00;;;;;;;7.70;3.58;;;;;;;;;;5044340;28;20076;-70
2023/09/15 04:15:26;;;;;;;5.38;3.60;;;;;;;;;;5040357;28;20137;-70
2023/09/15 04:17:55;;;;;;;6.78;3.85;;;;;;;;;;5042977;28;20088;-69
2023/09/15 04:20:22;;;;;;;7.18;3.90;;;;;;;;;;5045865;28;20041;-70
2023/09/15 04:22:50;;;;;;;6.57;4.10;;;;;;;;;;5045571;28;20045;-70
2023/09/15 04:25:16;;;;;;;6.15;3.70;;;;;;;;;;5044616;28;20060;-71
2023/09/15 04:27:43;;;;;;;4.53;3.67;;;;;;;;;;5042566;28;20060;-70
2023/09/15 04:30:10;;;;;;;7.70;3.53;;;;;;;;;;5045582;28;20479;-70
2023/09/15 04:32:37;;;;;;;7.63;3.45;;;;;;;;;;5046713;28;20140;-70
2023/09/15 04:35:05;;;;;;;5.32;3.65;;;;;;;;;;5045532;28;20052;-69
2023/09/15 04:37:32;;;;;;;5.93;3.60;;;;;;;;;;5051364;28;20503;-70
2023/09/15 04:40:01;;;;;;;4.85;3.80;;;;;;;;;;5043770;28;20141;-70
2023/09/15 04:42:28;;;;;;;6.82;3.85;;;;;;;;;;5053107;28;20057;-70
2023/09/15 04:44:54;;;;;;;6.40;4.03;;;;;;;;;;5048947;28;20075;-70
2023/09/15 04:47:30;;;;;;;5.30;3.85;;;;;;;;;;5049346;28;20052;-70
2023/09/15 04:49:57;;;;;;;7.57;3.85;;;;;;;;;;5050820;28;20056;-70
2023/09/15 04:52:23;;;;;;;6.00;3.70;;;;;;;;;;5048502;28;20067;-70
2023/09/15 04:54:50;;;;;;;6.28;4.07;;;;;;;;;;5049407;28;20139;-70
2023/09/15 04:57:18;;;;;;;5.60;3.40;;;;;;;;;;5047826;28;20055;-70
2023/09/15 04:59:46;;;;;;;6.43;3.58;;;;;;;;;;5048861;28;20114;-70
2023/09/15 05:02:13;;;;;;;8.50;4.97;;;;;;;;;;5045916;28;20052;-70
2023/09/15 05:04:39;;;;;;;5.85;4.05;;;;;;;;;;5044701;28;20044;-70
2023/09/15 05:07:06;;;;;;;6.82;4.30;;;;;;;;;;5042961;28;20071;-70
2023/09/15 05:09:33;;;;;;;7.28;3.88;;;;;;;;;;5052541;28;20049;-70
2023/09/15 05:12:00;;;;;;;7.45;4.05;;;;;;;;;;5041834;28;20128;-69
2023/09/15 05:14:28;;;;;;;7.55;4.28;;;;;;;;;;5046525;28;20053;-70
2023/09/15 05:16:55;;;;;;;9.68;3.75;;;;;;;;;;5047756;28;20051;-70
2023/09/15 05:19:22;;;;;;;6.63;4.10;;;;;;;;;;5051163;28;20052;-70
2023/09/15 05:21:48;;;;;;;7.90;4.03;;;;;;;;;;5047596;28;20140;-70
2023/09/15 05:24:15;;;;;;;10.02;4.50;;;;;;;;;;5047933;28;20510;-70
2023/09/15 05:26:41;;;;;;;8.77;4.13;;;;;;;;;;5050251;28;20131;-69
2023/09/15 05:29:08;;;;;;;5.45;4.13;;;;;;;;;;5046172;28;20129;-69
2023/09/15 05:31:36;;;;;;;6.85;4.05;;;;;;;;;;5047926;28;20052;-70
2023/09/15 05:34:03;;;;;;;6.82;3.92;;;;;;;;;;5047438;28;20071;-70
2023/09/15 05:36:30;;;;;;;7.80;4.00;;;;;;;;;;5050039;28;20067;-70
2023/09/15 05:38:56;;;;;;;8.32;4.40;;;;;;;;;;5047351;28;20053;-70
2023/09/15 05:41:23;;;;;;;4.85;3.92;;;;;;;;;;5045176;28;20041;-70
2023/09/15 05:43:50;;;;;;;6.45;4.50;;;;;;;;;;5050741;28;20123;-70
2023/09/15 05:46:16;;;;;;;9.75;4.18;;;;;;;;;;5049698;28;21287;-70
2023/09/15 05:48:44;;;;;;;6.03;4.13;;;;;;;;;;5046655;28;20140;-70
2023/09/15 05:51:11;;;;;;;8.30;4.00;;;;;;;;;;5049430;28;20519;-70
2023/09/15 05:53:37;;;;;;;6.13;3.97;;;;;;;;;;5049713;28;20643;-70
2023/09/15 05:56:04;;;;;;;10.45;4.00;;;;;;;;;;5042820;28;20564;-70
2023/09/15 05:58:31;;;;;;;13.82;4.32;;;;;;;;;;5049619;28;20044;-70
2023/09/15 06:00:58;;;;;;;5.85;3.60;;;;;;;;;;5047259;28;20052;-70
2023/09/15 06:03:25;;;;;;;7.53;4.03;;;;;;;;;;5046469;28;20080;-69
2023/09/15 06:05:53;;;;;;;7.45;4.00;;;;;;;;;;5047083;28;20048;-70
2023/09/15 06:08:20;;;;;;;5.90;3.53;;;;;;;;;;5049643;28;20148;-70
2023/09/15 06:10:47;;;;;;;7.20;4.07;;;;;;;;;;5045721;28;20049;-70
2023/09/15 06:13:14;;;;;;;6.85;3.72;;;;;;;;;;5047965;28;20128;-70
2023/09/15 06:15:41;;;;;;;12.80;4.38;;;;;;;;;;5052174;28;20041;-70
2023/09/15 06:18:08;;;;;;;6.88;3.90;;;;;;;;;;5052273;28;20051;-70
2023/09/15 06:20:34;;;;;;;7.57;4.03;;;;;;;;;;5044553;28;20156;-70
2023/09/15 06:23:03;;;;;;;11.45;4.18;;;;;;;;;;5043983;28;20462;-70
2023/09/15 06:25:30;;;;;;;6.85;3.72;;;;;;;;;;5046848;28;20080;-70
2023/09/15 06:27:57;;;;;;;7.93;4.10;;;;;;;;;;5043990;28;20064;-70
2023/09/15 06:30:23;;;;;;;7.53;5.20;;;;;;;;;;5047152;28;20091;-70
2023/09/15 06:32:50;;;;;;;7.28;4.10;;;;;;;;;;5048470;28;20515;-69
2023/09/15 06:35:17;;;;;;;7.63;4.10;;;;;;;;;;5043746;28;20135;-69
2023/09/15 06:37:44;;;;;;;4.57;3.60;;;;;;;;;;5046793;28;20094;-69
2023/09/15 06:40:12;;;;;;;8.82;4.13;;;;;;;;;;5045841;28;20131;-69
2023/09/15 06:42:39;;;;;;;13.98;4.60;;;;;;;;;;5045397;28;20770;-70
2023/09/15 06:45:07;;;;;;;7.78;4.20;;;;;;;;;;5051806;28;20127;-69
2023/09/15 06:47:33;;;;;;;5.85;4.07;;;;;;;;;;5044979;28;20067;-69
2023/09/15 06:50:00;;;;;;;7.90;4.07;;;;;;;;;;5046425;28;20135;-70
2023/09/15 06:52:27;;;;;;;5.07;3.40;;;;;;;;;;5046172;28;20055;-70
2023/09/15 06:54:53;;;;;;;6.88;3.60;;;;;;;;;;5048484;28;20136;-70
2023/09/15 06:57:21;;;;;;;3.85;2.90;;;;;;;;;;5044508;28;20044;-70
2023/09/15 06:59:48;;;;;;;3.70;2.90;;;;;;;;;;5047755;28;20055;-69
2023/09/15 07:02:15;;;;;;;6.93;3.10;;;;;;;;;;5045205;28;20044;-70
2023/09/15 07:04:43;;;;;;;2.92;2.47;;;;;;;;;;5044107;28;20108;-69
2023/09/15 07:07:10;;;;;;;4.15;2.60;;;;;;;;;;5039293;28;20073;-69
2023/09/15 07:09:37;;;;;;;4.43;2.60;;;;;;;;;;5043104;28;20052;-69
2023/09/15 07:12:04;;;;;;;4.70;2.65;;;;;;;;;;5043774;28;20103;-70
2023/09/15 07:14:32;;;;;;;5.43;2.92;;;;;;;;;;5044072;28;20048;-69
2023/09/15 07:16:59;;;;;;;3.88;2.40;;;;;;;;;;5036445;28;20049;-69
2023/09/15 07:19:26;;;;;;;3.60;2.75;;;;;;;;;;5042686;28;20492;-70
2023/09/15 07:21:52;;;;;;;5.13;2.80;;;;;;;;;;5036197;28;20096;-69
2023/09/15 07:24:19;;;;;;;3.63;2.80;;;;;;;;;;5043238;28;20469;-69
2023/09/15 07:26:46;;;;;;;9.25;2.33;;;;;;;;;;5045728;28;20048;-71
2023/09/15 07:29:13;;;;;;;4.93;2.65;;;;;;;;;;5039622;28;20481;-70
2023/09/15 07:31:42;;;;;;;5.65;2.53;;;;;;;;;;5035326;28;20048;-72
2023/09/15 07:34:09;;;;;;;5.07;2.70;;;;;;;;;;5036182;28;20133;-72
2023/09/15 07:36:35;;;;;;;3.60;2.40;;;;;;;;;;5039278;28;20091;-71
2023/09/15 07:39:05;;;;;;;5.80;2.72;;;;;;;;;;5042186;28;20045;-71
2023/09/15 07:41:31;;;;;;;3.90;2.42;;;;;;;;;;5040427;28;20068;-68
2023/09/15 07:44:00;;;;;;;6.53;2.90;;;;;;;;;;5045686;28;20574;-69
2023/09/15 07:46:27;;;;;;;7.18;2.70;;;;;;;;;;5047366;28;20559;-69
2023/09/15 07:48:56;;;;;;;6.80;2.90;;;;;;;;;;5038472;28;20135;-69
2023/09/15 07:51:23;;;;;;;10.45;2.85;;;;;;;;;;5039044;28;20119;-69
2023/09/15 07:53:50;;;;;;;9.88;2.75;;;;;;;;;;5042474;28;20067;-69
2023/09/15 07:56:17;;;;;;;6.88;2.88;;;;;;;;;;5044464;28;20501;-68
2023/09/15 07:58:44;;;;;;;4.70;2.65;;;;;;;;;;5039853;28;20124;-68
2023/09/15 08:01:11;;;;;;;11.48;3.03;;;;;;;;;;5044598;28;20041;-69
2023/09/15 08:03:38;;;;;;;6.55;2.70;;;;;;;;;;5043742;28;20480;-68
2023/09/15 08:06:07;;;;;;;8.40;2.60;;;;;;;;;;5041087;28;20128;-68
2023/09/15 08:08:34;;;;;;;7.40;3.03;;;;;;;;;;5043917;28;20171;-68
2023/09/15 08:11:01;;;;;;;5.38;2.42;;;;;;;;;;5040530;28;20046;-68
2023/09/15 08:13:28;;;;;;;5.57;2.33;;;;;;;;;;5049685;28;20063;-68
2023/09/15 08:15:55;;;;;;;8.05;2.45;;;;;;;;;;5043383;28;20528;-68
2023/09/15 08:18:22;;;;;;;6.75;2.92;;;;;;;;;;5048463;28;20080;-68
2023/09/15 08:20:49;;;;;;;12.75;2.80;;;;;;;;;;5052175;28;20072;-68
2023/09/15 08:23:17;;;;;;;8.50;2.55;;;;;;;;;;5038545;28;20045;-68
2023/09/15 08:25:43;;;;;;;10.48;2.17;;;;;;;;;;5040654;28;20579;-68
2023/09/15 08:28:10;;;;;;;8.82;2.53;;;;;;;;;;5040561;28;20387;-68
2023/09/15 08:30:37;;;;;;;14.35;2.50;;;;;;;;;;5044412;28;20052;-68
2023/09/15 08:33:05;;;;;;;7.68;2.30;;;;;;;;;;5040715;28;20038;-68
2023/09/15 08:35:32;;;;;;;10.38;2.67;;;;;;;;;;5039426;28;20132;-68
2023/09/15 08:37:59;;;;;;;4.28;2.28;;;;;;;;;;5046221;28;20299;-68
2023/09/15 08:40:37;;;;;;;5.13;1.90;;;;;;;;;;5050008;28;20201;-68
2023/09/15 08:43:05;;;;;;;5.32;2.47;;;;;;;;;;5043247;28;20056;-69
2023/09/15 08:45:33;;;;;;;9.60;2.25;;;;;;;;;;5039594;28;20459;-69
2023/09/15 08:48:04;;;;;;;6.35;2.10;;;;;;;;;;5043898;28;20324;-70
2023/09/15 08:50:31;;;;;;;8.70;2.75;;;;;;;;;;5037186;28;20045;-69
2023/09/15 08:53:00;;;;;;;4.97;2.47;;;;;;;;;;5043954;28;20053;-69
2023/09/15 08:55:28;;;;;;;5.38;1.98;;;;;;;;;;5046583;28;20087;-69
2023/09/15 08:57:56;;;;;;;5.18;2.40;;;;;;;;;;5042687;28;20211;-69
2023/09/15 09:00:23;;;;;;;8.73;2.00;;;;;;;;;;5045564;28;20643;-69
2023/09/15 09:02:50;;;;;;;6.13;2.00;;;;;;;;;;5050870;28;20128;-69
2023/09/15 09:05:17;;;;;;;3.38;1.92;;;;;;;;;;5045889;28;20602;-69
2023/09/15 09:07:45;;;;;;;6.68;2.38;;;;;;;;;;5045286;28;20519;-69
2023/09/15 09:10:12;;;;;;;5.57;2.55;;;;;;;;;;5037718;28;20536;-69
2023/09/15 09:12:40;;;;;;;7.75;1.90;;;;;;;;;;5040896;28;20041;-69
2023/09/15 09:15:10;;;;;;;6.75;2.45;;;;;;;;;;5041665;28;20053;-69
2023/09/15 09:17:39;;;;;;;6.68;2.10;;;;;;;;;;5036796;28;20132;-69
2023/09/15 09:20:08;;;;;;;6.38;1.83;;;;;;;;;;5041741;28;20158;-69
2023/09/15 09:22:35;;;;;;;4.47;2.08;;;;;;;;;;5042610;28;20061;-69
2023/09/15 09:25:02;;;;;;;4.60;1.88;;;;;;;;;;5037895;28;20037;-70
2023/09/15 09:27:32;;;;;;;3.45;2.08;;;;;;;;;;5044056;28;20504;-69
2023/09/15 09:30:01;;;;;;;6.35;1.90;;;;;;;;;;5037564;28;20053;-70
2023/09/15 09:32:28;;;;;;;4.35;1.75;;;;;;;;;;5032334;28;20132;-70
2023/09/15 09:34:54;;;;;;;8.65;1.73;;;;;;;;;;5036865;28;20041;-69
2023/09/15 09:37:25;;;;;;;11.27;2.00;;;;;;;;;;5045629;28;20054;-70
2023/09/15 09:39:52;;;;;;;9.73;2.10;;;;;;;;;;5042400;28;20045;-70
2023/09/15 09:42:19;;;;;;;9.07;2.15;;;;;;;;;;5040849;28;20041;-70
2023/09/15 09:44:46;;;;;;;4.15;1.52;;;;;;;;;;5041335;28;20101;-70
2023/09/15 09:47:14;;;;;;;3.42;1.70;;;;;;;;;;5045483;28;20049;-69
2023/09/15 09:49:41;;;;;;;7.72;2.58;;;;;;;;;;5037327;28;20136;-70
2023/09/15 09:52:08;;;;;;;8.50;1.95;;;;;;;;;;5036385;28;20128;-68
2023/09/15 09:54:35;;;;;;;6.50;1.90;;;;;;;;;;5042766;28;20056;-69
2023/09/15 09:57:02;;;;;;;6.43;1.70;;;;;;;;;;5045112;28;20045;-70
2023/09/15 09:59:29;;;;;;;7.43;1.73;;;;;;;;;;5041043;28;20049;-69
2023/09/15 10:01:55;;;;;;;5.47;1.60;;;;;;;;;;5038802;28;20148;-69
2023/09/15 10:04:24;;;;;;;8.32;1.95;;;;;;;;;;5039356;28;20049;-69
2023/09/15 10:06:51;;;;;;;7.72;1.90;;;;;;;;;;5041103;28;20417;-69
2023/09/15 10:09:18;;;;;;;5.03;1.70;;;;;;;;;;5044126;28;20057;-68
2023/09/15 10:11:45;;;;;;;4.75;1.95;;;;;;;;;;5037779;28;20080;-69
2023/09/15 10:14:12;;;;;;;7.55;1.73;;;;;;;;;;5039522;28;20501;-69
2023/09/15 10:16:38;;;;;;;6.55;1.73;;;;;;;;;;5042643;28;20049;-69
2023/09/15 10:19:06;;;;;;;9.90;2.05;;;;;;;;;;5039554;28;20120;-69
2023/09/15 10:21:35;;;;;;;9.70;2.40;;;;;;;;;;5045895;28;20553;-70
2023/09/15 10:24:06;;;;;;;6.32;1.83;;;;;;;;;;5042780;28;20125;-68
2023/09/15 10:26:33;;;;;;;7.75;1.90;;;;;;;;;;5042984;28;20045;-69
2023/09/15 10:29:02;;;;;;;8.65;2.35;;;;;;;;;;5037438;28;20056;-69
2023/09/15 10:31:32;;;;;;;5.78;1.75;;;;;;;;;;5042561;28;20054;-69
2023/09/15 10:34:02;;;;;;;4.35;1.92;;;;;;;;;;5030809;28;20081;-69
2023/09/15 10:36:29;;;;;;;5.78;1.70;;;;;;;;;;5034665;28;20053;-68
2023/09/15 10:38:58;;;;;;;6.50;1.83;;;;;;;;;;5041020;28;20507;-67
2023/09/15 10:41:26;;;;;;;4.38;1.60;;;;;;;;;;5036271;28;20494;-67
2023/09/15 10:43:53;;;;;;;4.40;1.63;;;;;;;;;;5040044;28;20168;-67
2023/09/15 10:46:20;;;;;;;4.95;1.60;;;;;;;;;;5036979;28;20094;-67
2023/09/15 10:48:48;;;;;;;7.10;2.10;;;;;;;;;;5034993;28;20132;-68
2023/09/15 10:51:17;;;;;;;6.93;2.08;;;;;;;;;;5034903;28;20424;-68
2023/09/15 10:53:45;;;;;;;5.55;1.80;;;;;;;;;;5045322;28;20045;-68
2023/09/15 10:56:14;;;;;;;8.60;1.85;;;;;;;;;;5043927;28;20132;-68
2023/09/15 10:58:41;;;;;;;2.55;1.52;;;;;;;;;;5042651;28;20045;-68
2023/09/15 11:01:10;;;;;;;5.70;1.80;;;;;;;;;;5043252;28;20080;-68
2023/09/15 11:03:38;;;;;;;3.17;1.60;;;;;;;;;;5044419;28;20049;-68
2023/09/15 11:06:08;;;;;;;4.32;1.83;;;;;;;;;;5039477;28;20053;-68
2023/09/15 11:08:35;;;;;;;4.95;1.83;;;;;;;;;;5049259;28;20095;-68
2023/09/15 11:11:04;;;;;;;2.85;1.50;;;;;;;;;;5041403;28;20160;-68
2023/09/15 11:13:34;;;;;;;4.45;2.00;;;;;;;;;;5043720;28;20072;-68
2023/09/15 11:16:00;;;;;;;4.75;1.70;;;;;;;;;;5045435;28;20096;-68
2023/09/15 11:18:27;;;;;;;3.72;1.98;;;;;;;;;;5041144;28;20459;-68
2023/09/15 11:20:56;;;;;;;4.93;1.80;;;;;;;;;;5041296;28;20124;-69
2023/09/15 11:23:24;;;;;;;6.32;1.83;;;;;;;;;;5043741;28;20041;-68
2023/09/15 11:25:59;;;;;;;6.78;1.75;;;;;;;;;;5043687;28;20041;-68
2023/09/15 11:28:26;;;;;;;2.92;1.38;;;;;;;;;;5043880;28;20045;-68
2023/09/15 11:30:54;;;;;;;2.25;1.50;;;;;;;;;;5041101;28;20127;-68
2023/09/15 11:33:20;;;;;;;3.47;1.70;;;;;;;;;;5042513;28;20056;-68
2023/09/15 11:35:48;;;;;;;2.70;1.50;;;;;;;;;;5035988;28;20044;-68
2023/09/15 11:38:15;;;;;;;2.47;1.70;;;;;;;;;;5037078;28;20081;-68
2023/09/15 11:40:47;;;;;;;2.90;1.63;;;;;;;;;;5039676;28;20045;-68
2023/09/15 11:43:14;;;;;;;4.20;1.65;;;;;;;;;;5039424;28;20046;-68
2023/09/15 11:45:42;;;;;;;2.50;1.63;;;;;;;;;;5037747;28;20449;-68
2023/09/15 11:48:12;;;;;;;1.50;1.38;;;;;;;;;;5038268;28;20402;-69
2023/09/15 11:50:39;;;;;;;3.90;1.50;;;;;;;;;;5042749;28;20052;-68
2023/09/15 11:53:05;;;;;;;2.33;1.60;;;;;;;;;;5041536;28;20047;-68
2023/09/15 11:55:33;;;;;;;3.35;1.45;;;;;;;;;;5039598;28;20132;-68
2023/09/15 11:58:00;;;;;;;2.58;1.55;;;;;;;;;;5036912;28;20041;-68
2023/09/15 12:00:30;;;;;;;2.97;1.60;;;;;;;;;;5038671;28;20548;-69
2023/09/15 12:02:57;;;;;;;2.15;1.45;;;;;;;;;;5039857;28;20056;-68
2023/09/15 12:05:26;;;;;;;3.28;1.80;;;;;;;;;;5037233;28;20129;-68
2023/09/15 12:07:53;;;;;;;3.35;1.60;;;;;;;;;;5037975;28;20106;-68
2023/09/15 12:10:22;;;;;;;3.00;1.30;;;;;;;;;;5043025;28;20050;-68
2023/09/15 12:12:49;;;;;;;1.75;1.42;;;;;;;;;;5040756;28;20128;-68
2023/09/15 12:15:16;;;;;;;5.50;1.80;;;;;;;;;;5042898;28;20464;-68
2023/09/15 12:17:45;;;;;;;3.80;1.45;;;;;;;;;;5039472;28;20408;-68
2023/09/15 12:20:12;;;;;;;2.97;1.73;;;;;;;;;;5039642;28;20079;-68
2023/09/15 12:22:41;;;;;;;4.50;1.42;;;;;;;;;;5038861;28;20053;-69
2023/09/15 12:25:10;;;;;;;2.40;1.40;;;;;;;;;;5036420;28;20084;-68
2023/09/15 12:27:39;;;;;;;3.92;1.73;;;;;;;;;;5039481;28;20064;-69
2023/09/15 12:30:08;;;;;;;1.58;1.38;;;;;;;;;;5037421;28;20049;-68
2023/09/15 12:32:36;;;;;;;4.70;1.45;;;;;;;;;;5044438;28;20133;-68
2023/09/15 12:35:09;;;;;;;3.97;1.70;;;;;;;;;;5038628;28;20152;-69
2023/09/15 12:37:35;;;;;;;3.88;1.80;;;;;;;;;;5041486;28;20244;-68
2023/09/15 12:40:03;;;;;;;4.35;1.67;;;;;;;;;;5043967;28;20136;-68
2023/09/15 12:42:30;;;;;;;3.53;1.48;;;;;;;;;;5042351;28;20092;-68
2023/09/15 12:44:57;;;;;;;4.32;1.75;;;;;;;;;;5044219;28;20049;-68
2023/09/15 12:47:23;;;;;;;3.58;1.65;;;;;;;;;;5039578;28;20132;-69
2023/09/15 12:49:50;;;;;;;4.60;1.83;;;;;;;;;;5036610;28;20067;-68
2023/09/15 12:52:16;;;;;;;3.33;1.63;;;;;;;;;;5044414;28;20075;-68
2023/09/15 12:54:43;;;;;;;6.70;1.77;;;;;;;;;;5038672;28;20128;-68
2023/09/15 12:57:11;;;;;;;3.88;1.70;;;;;;;;;;5042814;28;20048;-68
2023/09/15 12:59:37;;;;;;;3.15;1.77;;;;;;;;;;5043773;28;20722;-69
2023/09/15 13:02:05;;;;;;;2.72;1.70;;;;;;;;;;5044222;28;20132;-68
2023/09/15 13:04:31;;;;;;;4.03;1.92;;;;;;;;;;5046324;28;20063;-68
2023/09/15 13:06:59;;;;;;;3.13;1.65;;;;;;;;;;5039181;28;20056;-69
2023/09/15 13:09:27;;;;;;;2.85;1.63;;;;;;;;;;5039442;28;20056;-69
2023/09/15 13:11:54;;;;;;;2.85;1.70;;;;;;;;;;5042736;28;20084;-68
2023/09/15 13:14:22;;;;;;;5.65;2.10;;;;;;;;;;5039105;28;20052;-68
2023/09/15 13:16:49;;;;;;;3.97;1.70;;;;;;;;;;5045432;28;20559;-68
2023/09/15 13:19:15;;;;;;;3.05;1.85;;;;;;;;;;5039449;28;20046;-68
2023/09/15 13:21:42;;;;;;;2.70;1.60;;;;;;;;;;5044414;28;20126;-69
2023/09/15 13:24:09;;;;;;;3.63;1.67;;;;;;;;;;5047360;28;20045;-69
2023/09/15 13:26:36;;;;;;;3.17;1.75;;;;;;;;;;5047403;28;20128;-68
2023/09/15 13:29:03;;;;;;;1.83;1.70;;;;;;;;;;5047181;28;20044;-69
2023/09/15 13:31:31;;;;;;;2.00;1.60;;;;;;;;;;5046357;28;20428;-69
2023/09/15 13:33:58;;;;;;;1.88;1.60;;;;;;;;;;5042093;28;20053;-69
2023/09/15 13:36:25;;;;;;;2.30;1.70;;;;;;;;;;5045658;28;20153;-69
2023/09/15 13:38:52;;;;;;;1.65;1.55;;;;;;;;;;5047844;28;20417;-69
2023/09/15 13:41:19;;;;;;;1.83;1.50;;;;;;;;;;5042666;28;20497;-69
2023/09/15 13:43:46;;;;;;;2.90;1.40;;;;;;;;;;5042358;28;20056;-69
2023/09/15 13:46:12;;;;;;;2.05;1.52;;;;;;;;;;5043577;28;20140;-69
2023/09/15 13:48:40;;;;;;;2.28;1.73;;;;;;;;;;5044442;28;20131;-69
2023/09/15 13:51:07;;;;;;;1.85;1.75;;;;;;;;;;5038755;28;20548;-68
2023/09/15 13:53:35;;;;;;;2.63;1.70;;;;;;;;;;5040309;28;20128;-68
2023/09/15 13:56:02;;;;;;;2.30;1.90;;;;;;;;;;5043966;28;20051;-69
2023/09/15 13:58:29;;;;;;;3.15;1.90;;;;;;;;;;5045393;28;20041;-69
2023/09/15 14:00:57;;;;;;;1.95;1.75;;;;;;;;;;5043782;28;20041;-69
2023/09/15 14:03:23;;;;;;;3.38;1.83;;;;;;;;;;5041655;28;20472;-69
2023/09/15 14:05:52;;;;;;;2.75;1.70;;;;;;;;;;5046170;28;20059;-69
2023/09/15 14:08:19;;;;;;;1.80;1.65;;;;;;;;;;5044544;28;20049;-69
2023/09/15 14:10:45;;;;;;;3.58;1.92;;;;;;;;;;5045845;28;20092;-70
2023/09/15 14:13:14;;;;;;;2.10;1.90;;;;;;;;;;5043781;28;20120;-69
2023/09/15 14:15:41;;;;;;;1.77;1.67;;;;;;;;;;5038231;28;20470;-69
2023/09/15 14:18:08;;;;;;;2.70;1.98;;;;;;;;;;5036981;28;20049;-68
2023/09/15 14:20:34;;;;;;;3.33;2.00;;;;;;;;;;5040096;28;20140;-69
2023/09/15 14:23:03;;;;;;;2.33;2.05;;;;;;;;;;5039776;28;20409;-69
2023/09/15 14:25:29;;;;;;;3.03;2.10;;;;;;;;;;5039718;28;20268;-69
2023/09/15 14:27:56;;;;;;;2.40;1.98;;;;;;;;;;5040855;28;20124;-70
2023/09/15 14:30:23;;;;;;;2.75;1.92;;;;;;;;;;5043759;28;20139;-69
2023/09/15 14:32:49;;;;;;;3.47;2.00;;;;;;;;;;5042697;28;20049;-69
2023/09/15 14:35:17;;;;;;;3.17;1.85;;;;;;;;;;5041380;28;20552;-70
2023/09/15 14:37:43;;;;;;;2.05;1.85;;;;;;;;;;5039860;28;20065;-69
2023/09/15 14:40:12;;;;;;;3.35;2.10;;;;;;;;;;5039137;28;20045;-69
2023/09/15 14:42:39;;;;;;;3.63;2.25;;;;;;;;;;5039508;28;20099;-68
2023/09/15 14:45:06;;;;;;;2.97;2.10;;;;;;;;;;5039793;28;20124;-70